sensor_id;sensor_type;location;lat;lon;timestamp;temperature;humidity
22968;DHT22;11650;48.106;-1.696;2024-01-06T00:01:25;5.10;99.90
22968;DHT22;11650;48.106;-1.696;2024-01-06T00:03:50;5.10;99.90
22968;DHT22;11650;48.106;-1.696;2024-01-06T00:06:16;5.10;99.90
22968;DHT22;11650;48.106;-1.696;2024-01-06T00:08:41;5.10;99.90
22968;DHT22;11650;48.106;-1.696;2024-01-06T00:11:07;5.10;99.90
22968;DHT22;11650;48.106;-1.696;2024-01-06T00:13:33;5.10;99.90
22968;DHT22;11650;48.106;-1.696;2024-01-06T00:16:00;5.00;99.90
22968;DHT22;11650;48.106;-1.696;2024-01-06T00:18:25;5.10;99.90
22968;DHT22;11650;48.106;-1.696;2024-01-06T00:20:51;5.00;99.90
22968;DHT22;11650;48.106;-1.696;2024-01-06T00:23:17;5.00;99.90
22968;DHT22;11650;48.106;-1.696;2024-01-06T00:25:43;5.00;99.90
22968;DHT22;11650;48.106;-1.696;2024-01-06T00:28:08;5.00;99.90
22968;DHT22;11650;48.106;-1.696;2024-01-06T00:30:34;5.00;99.90
22968;DHT22;11650;48.106;-1.696;2024-01-06T00:33:00;5.00;99.90
22968;DHT22;11650;48.106;-1.696;2024-01-06T00:35:25;5.00;99.90
22968;DHT22;11650;48.106;-1.696;2024-01-06T00:37:51;5.00;99.90
22968;DHT22;11650;48.106;-1.696;2024-01-06T00:40:16;5.00;99.90
22968;DHT22;11650;48.106;-1.696;2024-01-06T00:42:44;5.00;99.90
22968;DHT22;11650;48.106;-1.696;2024-01-06T00:45:09;5.00;99.90
22968;DHT22;11650;48.106;-1.696;2024-01-06T00:47:35;5.10;99.90
22968;DHT22;11650;48.106;-1.696;2024-01-06T00:50:01;5.10;99.90
22968;DHT22;11650;48.106;-1.696;2024-01-06T00:52:26;5.10;99.90
22968;DHT22;11650;48.106;-1.696;2024-01-06T00:54:52;5.10;99.90
22968;DHT22;11650;48.106;-1.696;2024-01-06T00:57:17;5.00;99.90
22968;DHT22;11650;48.106;-1.696;2024-01-06T00:59:49;5.00;99.90
22968;DHT22;11650;48.106;-1.696;2024-01-06T01:02:14;5.00;99.90
22968;DHT22;11650;48.106;-1.696;2024-01-06T01:04:40;5.10;99.90
22968;DHT22;11650;48.106;-1.696;2024-01-06T01:07:06;5.10;99.90
22968;DHT22;11650;48.106;-1.696;2024-01-06T01:09:31;5.10;99.90
22968;DHT22;11650;48.106;-1.696;2024-01-06T01:11:57;5.20;99.90
22968;DHT22;11650;48.106;-1.696;2024-01-06T01:14:22;5.20;99.90
22968;DHT22;11650;48.106;-1.696;2024-01-06T01:16:48;5.30;99.90
22968;DHT22;11650;48.106;-1.696;2024-01-06T01:19:14;5.20;99.90
22968;DHT22;11650;48.106;-1.696;2024-01-06T01:21:40;5.30;99.90
22968;DHT22;11650;48.106;-1.696;2024-01-06T01:24:05;5.30;99.90
22968;DHT22;11650;48.106;-1.696;2024-01-06T01:26:31;5.30;99.90
22968;DHT22;11650;48.106;-1.696;2024-01-06T01:28:56;5.30;99.90
22968;DHT22;11650;48.106;-1.696;2024-01-06T01:31:22;5.40;99.90
22968;DHT22;11650;48.106;-1.696;2024-01-06T01:33:48;5.40;99.90
22968;DHT22;11650;48.106;-1.696;2024-01-06T01:36:13;5.50;99.90
22968;DHT22;11650;48.106;-1.696;2024-01-06T01:38:39;5.50;99.90
22968;DHT22;11650;48.106;-1.696;2024-01-06T01:41:04;5.60;99.90
22968;DHT22;11650;48.106;-1.696;2024-01-06T01:43:30;5.60;99.90
22968;DHT22;11650;48.106;-1.696;2024-01-06T01:45:57;5.60;99.90
22968;DHT22;11650;48.106;-1.696;2024-01-06T01:48:24;5.60;99.90
22968;DHT22;11650;48.106;-1.696;2024-01-06T01:50:51;5.70;99.90
22968;DHT22;11650;48.106;-1.696;2024-01-06T01:53:17;5.80;99.90
22968;DHT22;11650;48.106;-1.696;2024-01-06T01:55:43;5.80;99.90
22968;DHT22;11650;48.106;-1.696;2024-01-06T01:58:12;5.80;99.90
22968;DHT22;11650;48.106;-1.696;2024-01-06T02:00:38;5.80;99.90
22968;DHT22;11650;48.106;-1.696;2024-01-06T02:03:05;5.90;99.90
22968;DHT22;11650;48.106;-1.696;2024-01-06T02:05:31;5.90;99.90
22968;DHT22;11650;48.106;-1.696;2024-01-06T02:07:57;5.90;99.90
22968;DHT22;11650;48.106;-1.696;2024-01-06T02:10:22;6.00;99.90
22968;DHT22;11650;48.106;-1.696;2024-01-06T02:12:49;6.10;99.90
22968;DHT22;11650;48.106;-1.696;2024-01-06T02:15:17;6.10;99.90
22968;DHT22;11650;48.106;-1.696;2024-01-06T02:17:42;6.20;99.90
22968;DHT22;11650;48.106;-1.696;2024-01-06T02:20:09;6.20;99.90
22968;DHT22;11650;48.106;-1.696;2024-01-06T02:22:36;6.20;99.90
22968;DHT22;11650;48.106;-1.696;2024-01-06T02:25:02;6.20;99.90
22968;DHT22;11650;48.106;-1.696;2024-01-06T02:27:32;6.20;99.90
22968;DHT22;11650;48.106;-1.696;2024-01-06T02:29:58;6.20;99.90
22968;DHT22;11650;48.106;-1.696;2024-01-06T02:32:24;6.20;99.90
22968;DHT22;11650;48.106;-1.696;2024-01-06T02:34:49;6.20;99.90
22968;DHT22;11650;48.106;-1.696;2024-01-06T02:37:15;6.20;99.90
22968;DHT22;11650;48.106;-1.696;2024-01-06T02:39:40;6.10;99.90
22968;DHT22;11650;48.106;-1.696;2024-01-06T02:42:06;6.10;99.90
22968;DHT22;11650;48.106;-1.696;2024-01-06T02:44:32;6.10;99.90
22968;DHT22;11650;48.106;-1.696;2024-01-06T02:46:57;6.10;99.90
22968;DHT22;11650;48.106;-1.696;2024-01-06T02:49:23;6.10;99.90
22968;DHT22;11650;48.106;-1.696;2024-01-06T02:51:48;6.10;99.90
22968;DHT22;11650;48.106;-1.696;2024-01-06T02:54:14;6.10;99.90
22968;DHT22;11650;48.106;-1.696;2024-01-06T02:56:40;6.10;99.90
22968;DHT22;11650;48.106;-1.696;2024-01-06T02:59:05;6.10;99.90
22968;DHT22;11650;48.106;-1.696;2024-01-06T03:01:31;6.10;99.90
22968;DHT22;11650;48.106;-1.696;2024-01-06T03:03:57;6.10;99.90
22968;DHT22;11650;48.106;-1.696;2024-01-06T03:06:23;6.10;99.90
22968;DHT22;11650;48.106;-1.696;2024-01-06T03:08:48;6.10;99.90
22968;DHT22;11650;48.106;-1.696;2024-01-06T03:11:14;6.20;99.90
22968;DHT22;11650;48.106;-1.696;2024-01-06T03:13:40;6.10;99.90
22968;DHT22;11650;48.106;-1.696;2024-01-06T03:16:05;6.10;99.90
22968;DHT22;11650;48.106;-1.696;2024-01-06T03:18:31;6.10;99.90
22968;DHT22;11650;48.106;-1.696;2024-01-06T03:20:56;6.10;99.90
22968;DHT22;11650;48.106;-1.696;2024-01-06T03:23:22;6.10;99.90
22968;DHT22;11650;48.106;-1.696;2024-01-06T03:25:48;6.10;99.90
22968;DHT22;11650;48.106;-1.696;2024-01-06T03:28:13;6.10;99.90
22968;DHT22;11650;48.106;-1.696;2024-01-06T03:30:39;6.10;99.90
22968;DHT22;11650;48.106;-1.696;2024-01-06T03:33:06;6.00;99.90
22968;DHT22;11650;48.106;-1.696;2024-01-06T03:35:31;6.00;99.90
22968;DHT22;11650;48.106;-1.696;2024-01-06T03:37:57;6.00;99.90
22968;DHT22;11650;48.106;-1.696;2024-01-06T03:40:23;6.00;99.90
22968;DHT22;11650;48.106;-1.696;2024-01-06T03:42:48;6.00;99.90
22968;DHT22;11650;48.106;-1.696;2024-01-06T03:45:14;6.00;99.90
22968;DHT22;11650;48.106;-1.696;2024-01-06T03:47:40;6.00;99.90
22968;DHT22;11650;48.106;-1.696;2024-01-06T03:50:06;6.10;99.90
22968;DHT22;11650;48.106;-1.696;2024-01-06T03:52:31;6.10;99.90
22968;DHT22;11650;48.106;-1.696;2024-01-06T03:54:57;6.20;99.90
22968;DHT22;11650;48.106;-1.696;2024-01-06T03:57:23;6.20;99.90
22968;DHT22;11650;48.106;-1.696;2024-01-06T03:59:48;6.20;99.90
22968;DHT22;11650;48.106;-1.696;2024-01-06T04:02:14;6.20;99.90
22968;DHT22;11650;48.106;-1.696;2024-01-06T04:04:39;6.20;99.90
22968;DHT22;11650;48.106;-1.696;2024-01-06T04:07:05;6.20;99.90
22968;DHT22;11650;48.106;-1.696;2024-01-06T04:09:32;6.20;99.90
22968;DHT22;11650;48.106;-1.696;2024-01-06T04:11:57;6.10;99.90
22968;DHT22;11650;48.106;-1.696;2024-01-06T04:14:23;6.10;99.90
22968;DHT22;11650;48.106;-1.696;2024-01-06T04:16:49;6.10;99.90
22968;DHT22;11650;48.106;-1.696;2024-01-06T04:19:14;6.00;99.90
22968;DHT22;11650;48.106;-1.696;2024-01-06T04:21:40;6.10;99.90
22968;DHT22;11650;48.106;-1.696;2024-01-06T04:24:06;6.00;99.90
22968;DHT22;11650;48.106;-1.696;2024-01-06T04:26:32;6.00;99.90
22968;DHT22;11650;48.106;-1.696;2024-01-06T04:28:57;6.00;99.90
22968;DHT22;11650;48.106;-1.696;2024-01-06T04:31:23;6.00;99.90
22968;DHT22;11650;48.106;-1.696;2024-01-06T04:33:48;6.00;99.90
22968;DHT22;11650;48.106;-1.696;2024-01-06T04:36:14;6.00;99.90
22968;DHT22;11650;48.106;-1.696;2024-01-06T04:38:40;6.00;99.90
22968;DHT22;11650;48.106;-1.696;2024-01-06T04:41:05;6.00;99.90
22968;DHT22;11650;48.106;-1.696;2024-01-06T04:43:31;6.00;99.90
22968;DHT22;11650;48.106;-1.696;2024-01-06T04:45:56;6.00;99.90
22968;DHT22;11650;48.106;-1.696;2024-01-06T04:48:23;6.00;99.90
22968;DHT22;11650;48.106;-1.696;2024-01-06T04:50:49;6.00;99.90
22968;DHT22;11650;48.106;-1.696;2024-01-06T04:53:14;5.90;99.90
22968;DHT22;11650;48.106;-1.696;2024-01-06T04:55:40;6.00;99.90
22968;DHT22;11650;48.106;-1.696;2024-01-06T04:58:06;6.00;99.90
22968;DHT22;11650;48.106;-1.696;2024-01-06T05:00:31;6.00;99.90
22968;DHT22;11650;48.106;-1.696;2024-01-06T05:02:57;6.00;99.90
22968;DHT22;11650;48.106;-1.696;2024-01-06T05:05:23;6.00;99.90
22968;DHT22;11650;48.106;-1.696;2024-01-06T05:07:49;6.00;99.90
22968;DHT22;11650;48.106;-1.696;2024-01-06T05:10:14;5.90;99.90
22968;DHT22;11650;48.106;-1.696;2024-01-06T05:12:40;5.90;99.90
22968;DHT22;11650;48.106;-1.696;2024-01-06T05:15:07;5.90;99.90
22968;DHT22;11650;48.106;-1.696;2024-01-06T05:17:32;5.80;99.90
22968;DHT22;11650;48.106;-1.696;2024-01-06T05:19:58;5.80;99.90
22968;DHT22;11650;48.106;-1.696;2024-01-06T05:22:24;5.70;99.90
22968;DHT22;11650;48.106;-1.696;2024-01-06T05:24:49;5.70;99.90
22968;DHT22;11650;48.106;-1.696;2024-01-06T05:27:18;5.60;99.90
22968;DHT22;11650;48.106;-1.696;2024-01-06T05:29:45;5.60;99.90
22968;DHT22;11650;48.106;-1.696;2024-01-06T05:32:10;5.60;99.90
22968;DHT22;11650;48.106;-1.696;2024-01-06T05:34:36;5.50;99.90
22968;DHT22;11650;48.106;-1.696;2024-01-06T05:37:02;5.50;99.90
22968;DHT22;11650;48.106;-1.696;2024-01-06T05:39:27;5.50;99.90
22968;DHT22;11650;48.106;-1.696;2024-01-06T05:41:53;5.50;99.90
22968;DHT22;11650;48.106;-1.696;2024-01-06T05:44:19;5.50;99.90
22968;DHT22;11650;48.106;-1.696;2024-01-06T05:46:44;5.60;99.90
22968;DHT22;11650;48.106;-1.696;2024-01-06T05:49:10;5.60;99.90
22968;DHT22;11650;48.106;-1.696;2024-01-06T05:51:36;5.60;99.90
22968;DHT22;11650;48.106;-1.696;2024-01-06T05:54:01;5.60;99.90
22968;DHT22;11650;48.106;-1.696;2024-01-06T05:56:28;5.50;99.90
22968;DHT22;11650;48.106;-1.696;2024-01-06T05:58:54;5.60;99.90
22968;DHT22;11650;48.106;-1.696;2024-01-06T06:01:20;5.50;99.90
22968;DHT22;11650;48.106;-1.696;2024-01-06T06:03:47;5.50;99.90
22968;DHT22;11650;48.106;-1.696;2024-01-06T06:06:13;5.40;99.90
22968;DHT22;11650;48.106;-1.696;2024-01-06T06:08:40;5.40;99.90
22968;DHT22;11650;48.106;-1.696;2024-01-06T06:11:07;5.30;99.90
22968;DHT22;11650;48.106;-1.696;2024-01-06T06:13:38;5.30;99.90
22968;DHT22;11650;48.106;-1.696;2024-01-06T06:16:04;5.30;99.90
22968;DHT22;11650;48.106;-1.696;2024-01-06T06:18:30;5.30;99.90
22968;DHT22;11650;48.106;-1.696;2024-01-06T06:20:56;5.20;99.90
22968;DHT22;11650;48.106;-1.696;2024-01-06T06:23:22;5.20;99.90
22968;DHT22;11650;48.106;-1.696;2024-01-06T06:25:47;5.20;99.90
22968;DHT22;11650;48.106;-1.696;2024-01-06T06:28:13;5.10;99.90
22968;DHT22;11650;48.106;-1.696;2024-01-06T06:30:38;5.10;99.90
22968;DHT22;11650;48.106;-1.696;2024-01-06T06:33:04;5.10;99.90
22968;DHT22;11650;48.106;-1.696;2024-01-06T06:35:30;5.10;99.90
22968;DHT22;11650;48.106;-1.696;2024-01-06T06:37:55;5.00;99.90
22968;DHT22;11650;48.106;-1.696;2024-01-06T06:40:21;5.00;99.90
22968;DHT22;11650;48.106;-1.696;2024-01-06T06:42:47;5.00;99.90
22968;DHT22;11650;48.106;-1.696;2024-01-06T06:45:13;5.00;99.90
22968;DHT22;11650;48.106;-1.696;2024-01-06T06:47:39;4.90;99.90
22968;DHT22;11650;48.106;-1.696;2024-01-06T06:50:04;4.90;99.90
22968;DHT22;11650;48.106;-1.696;2024-01-06T06:52:30;4.90;99.90
22968;DHT22;11650;48.106;-1.696;2024-01-06T06:54:56;4.90;99.90
22968;DHT22;11650;48.106;-1.696;2024-01-06T06:57:22;4.90;99.90
22968;DHT22;11650;48.106;-1.696;2024-01-06T06:59:48;4.90;99.90
22968;DHT22;11650;48.106;-1.696;2024-01-06T07:02:14;4.90;99.90
22968;DHT22;11650;48.106;-1.696;2024-01-06T07:04:39;4.90;99.90
22968;DHT22;11650;48.106;-1.696;2024-01-06T07:07:05;4.90;99.90
22968;DHT22;11650;48.106;-1.696;2024-01-06T07:09:31;5.00;99.90
22968;DHT22;11650;48.106;-1.696;2024-01-06T07:11:56;5.00;99.90
22968;DHT22;11650;48.106;-1.696;2024-01-06T07:14:22;5.10;99.90
22968;DHT22;11650;48.106;-1.696;2024-01-06T07:16:48;5.10;99.90
22968;DHT22;11650;48.106;-1.696;2024-01-06T07:19:14;5.10;99.90
22968;DHT22;11650;48.106;-1.696;2024-01-06T07:21:40;5.10;99.90
22968;DHT22;11650;48.106;-1.696;2024-01-06T07:24:06;5.00;99.90
22968;DHT22;11650;48.106;-1.696;2024-01-06T07:26:32;5.00;99.90
22968;DHT22;11650;48.106;-1.696;2024-01-06T07:28:57;5.00;99.90
22968;DHT22;11650;48.106;-1.696;2024-01-06T07:31:23;5.10;99.90
22968;DHT22;11650;48.106;-1.696;2024-01-06T07:33:48;5.10;99.90
22968;DHT22;11650;48.106;-1.696;2024-01-06T07:36:14;5.10;99.90
22968;DHT22;11650;48.106;-1.696;2024-01-06T07:38:41;5.10;99.90
22968;DHT22;11650;48.106;-1.696;2024-01-06T07:41:06;5.20;99.90
22968;DHT22;11650;48.106;-1.696;2024-01-06T07:43:32;5.20;99.90
22968;DHT22;11650;48.106;-1.696;2024-01-06T07:45:58;5.20;99.90
22968;DHT22;11650;48.106;-1.696;2024-01-06T07:48:24;5.20;99.90
22968;DHT22;11650;48.106;-1.696;2024-01-06T07:50:50;5.20;99.90
22968;DHT22;11650;48.106;-1.696;2024-01-06T07:53:15;5.30;99.90
22968;DHT22;11650;48.106;-1.696;2024-01-06T07:55:41;5.30;99.90
22968;DHT22;11650;48.106;-1.696;2024-01-06T07:58:07;5.30;99.90
22968;DHT22;11650;48.106;-1.696;2024-01-06T08:00:32;5.30;99.90
22968;DHT22;11650;48.106;-1.696;2024-01-06T08:02:58;5.40;99.90
22968;DHT22;11650;48.106;-1.696;2024-01-06T08:05:24;5.40;99.90
22968;DHT22;11650;48.106;-1.696;2024-01-06T08:07:51;5.50;99.90
22968;DHT22;11650;48.106;-1.696;2024-01-06T08:10:17;5.50;99.90
22968;DHT22;11650;48.106;-1.696;2024-01-06T08:12:42;5.60;99.90
22968;DHT22;11650;48.106;-1.696;2024-01-06T08:15:09;5.70;99.90
22968;DHT22;11650;48.106;-1.696;2024-01-06T08:17:35;5.80;99.90
22968;DHT22;11650;48.106;-1.696;2024-01-06T08:20:01;5.80;99.90
22968;DHT22;11650;48.106;-1.696;2024-01-06T08:22:28;5.90;99.90
22968;DHT22;11650;48.106;-1.696;2024-01-06T08:24:54;6.00;99.90
22968;DHT22;11650;48.106;-1.696;2024-01-06T08:27:19;6.10;99.90
22968;DHT22;11650;48.106;-1.696;2024-01-06T08:29:46;6.20;99.90
22968;DHT22;11650;48.106;-1.696;2024-01-06T08:32:12;6.20;99.90
22968;DHT22;11650;48.106;-1.696;2024-01-06T08:34:40;6.30;99.90
22968;DHT22;11650;48.106;-1.696;2024-01-06T08:37:05;6.50;99.90
22968;DHT22;11650;48.106;-1.696;2024-01-06T08:39:31;6.70;99.90
22968;DHT22;11650;48.106;-1.696;2024-01-06T08:41:57;6.80;99.90
22968;DHT22;11650;48.106;-1.696;2024-01-06T08:44:22;6.90;99.90
22968;DHT22;11650;48.106;-1.696;2024-01-06T08:46:48;7.00;99.90
22968;DHT22;11650;48.106;-1.696;2024-01-06T08:49:13;7.00;99.90
22968;DHT22;11650;48.106;-1.696;2024-01-06T08:51:39;7.10;99.90
22968;DHT22;11650;48.106;-1.696;2024-01-06T08:54:05;7.20;99.90
22968;DHT22;11650;48.106;-1.696;2024-01-06T08:56:32;7.20;99.90
22968;DHT22;11650;48.106;-1.696;2024-01-06T08:58:57;7.20;99.90
22968;DHT22;11650;48.106;-1.696;2024-01-06T09:01:23;7.20;99.90
22968;DHT22;11650;48.106;-1.696;2024-01-06T09:03:48;7.20;99.90
22968;DHT22;11650;48.106;-1.696;2024-01-06T09:06:15;7.20;99.90
22968;DHT22;11650;48.106;-1.696;2024-01-06T09:08:41;7.20;99.90
22968;DHT22;11650;48.106;-1.696;2024-01-06T09:11:06;7.30;99.90
22968;DHT22;11650;48.106;-1.696;2024-01-06T09:13:32;7.30;99.90
22968;DHT22;11650;48.106;-1.696;2024-01-06T09:15:58;7.30;99.90
22968;DHT22;11650;48.106;-1.696;2024-01-06T09:18:28;7.30;99.90
22968;DHT22;11650;48.106;-1.696;2024-01-06T09:20:54;7.30;99.90
22968;DHT22;11650;48.106;-1.696;2024-01-06T09:23:20;7.30;99.90
22968;DHT22;11650;48.106;-1.696;2024-01-06T09:25:46;7.30;99.90
22968;DHT22;11650;48.106;-1.696;2024-01-06T09:28:15;7.40;99.90
22968;DHT22;11650;48.106;-1.696;2024-01-06T09:30:41;7.50;99.90
22968;DHT22;11650;48.106;-1.696;2024-01-06T09:33:06;7.50;99.90
22968;DHT22;11650;48.106;-1.696;2024-01-06T09:35:33;7.40;99.90
22968;DHT22;11650;48.106;-1.696;2024-01-06T09:37:59;7.40;99.90
22968;DHT22;11650;48.106;-1.696;2024-01-06T09:40:25;7.30;99.90
22968;DHT22;11650;48.106;-1.696;2024-01-06T09:42:51;7.20;99.90
22968;DHT22;11650;48.106;-1.696;2024-01-06T09:45:17;7.20;99.90
22968;DHT22;11650;48.106;-1.696;2024-01-06T09:47:48;7.10;99.90
22968;DHT22;11650;48.106;-1.696;2024-01-06T09:50:18;7.00;99.90
22968;DHT22;11650;48.106;-1.696;2024-01-06T09:52:48;7.10;99.90
22968;DHT22;11650;48.106;-1.696;2024-01-06T09:55:25;7.10;99.90
22968;DHT22;11650;48.106;-1.696;2024-01-06T09:57:52;7.20;99.90
22968;DHT22;11650;48.106;-1.696;2024-01-06T10:00:19;7.30;99.90
22968;DHT22;11650;48.106;-1.696;2024-01-06T10:02:46;7.20;99.90
22968;DHT22;11650;48.106;-1.696;2024-01-06T10:05:13;7.20;99.90
22968;DHT22;11650;48.106;-1.696;2024-01-06T10:07:41;7.20;99.90
22968;DHT22;11650;48.106;-1.696;2024-01-06T10:10:07;7.10;99.90
22968;DHT22;11650;48.106;-1.696;2024-01-06T10:12:33;7.10;99.90
22968;DHT22;11650;48.106;-1.696;2024-01-06T10:14:58;7.10;99.90
22968;DHT22;11650;48.106;-1.696;2024-01-06T10:17:24;7.00;99.90
22968;DHT22;11650;48.106;-1.696;2024-01-06T10:19:50;7.10;99.90
22968;DHT22;11650;48.106;-1.696;2024-01-06T10:22:18;7.30;99.90
22968;DHT22;11650;48.106;-1.696;2024-01-06T10:24:44;7.40;99.90
22968;DHT22;11650;48.106;-1.696;2024-01-06T10:27:10;7.50;99.90
22968;DHT22;11650;48.106;-1.696;2024-01-06T10:29:36;7.60;99.90
22968;DHT22;11650;48.106;-1.696;2024-01-06T10:32:01;7.70;99.90
22968;DHT22;11650;48.106;-1.696;2024-01-06T10:34:28;7.70;99.90
22968;DHT22;11650;48.106;-1.696;2024-01-06T10:36:54;7.80;99.90
22968;DHT22;11650;48.106;-1.696;2024-01-06T10:39:20;7.90;99.90
22968;DHT22;11650;48.106;-1.696;2024-01-06T10:41:50;8.20;99.90
22968;DHT22;11650;48.106;-1.696;2024-01-06T10:44:17;8.10;99.90
22968;DHT22;11650;48.106;-1.696;2024-01-06T10:46:44;8.10;99.90
22968;DHT22;11650;48.106;-1.696;2024-01-06T10:49:11;8.10;99.90
22968;DHT22;11650;48.106;-1.696;2024-01-06T10:51:38;8.10;99.90
22968;DHT22;11650;48.106;-1.696;2024-01-06T10:54:05;8.20;99.90
22968;DHT22;11650;48.106;-1.696;2024-01-06T10:56:36;8.10;99.90
22968;DHT22;11650;48.106;-1.696;2024-01-06T10:59:04;8.20;99.90
22968;DHT22;11650;48.106;-1.696;2024-01-06T11:01:29;8.20;99.90
22968;DHT22;11650;48.106;-1.696;2024-01-06T11:03:56;8.20;99.90
22968;DHT22;11650;48.106;-1.696;2024-01-06T11:06:22;8.20;99.90
22968;DHT22;11650;48.106;-1.696;2024-01-06T11:08:50;8.30;99.90
22968;DHT22;11650;48.106;-1.696;2024-01-06T11:11:19;8.50;99.90
22968;DHT22;11650;48.106;-1.696;2024-01-06T11:13:45;8.80;99.90
22968;DHT22;11650;48.106;-1.696;2024-01-06T11:16:35;8.90;99.90
22968;DHT22;11650;48.106;-1.696;2024-01-06T11:19:01;8.90;99.90
22968;DHT22;11650;48.106;-1.696;2024-01-06T11:21:27;8.90;99.90
22968;DHT22;11650;48.106;-1.696;2024-01-06T11:24:13;9.00;99.90
22968;DHT22;11650;48.106;-1.696;2024-01-06T11:26:43;9.00;99.90
22968;DHT22;11650;48.106;-1.696;2024-01-06T11:29:09;9.00;99.90
22968;DHT22;11650;48.106;-1.696;2024-01-06T11:31:34;8.80;99.90
22968;DHT22;11650;48.106;-1.696;2024-01-06T11:34:17;8.70;99.90
22968;DHT22;11650;48.106;-1.696;2024-01-06T11:36:45;8.90;99.90
22968;DHT22;11650;48.106;-1.696;2024-01-06T11:39:50;9.00;99.90
22968;DHT22;11650;48.106;-1.696;2024-01-06T11:42:15;9.00;99.90
22968;DHT22;11650;48.106;-1.696;2024-01-06T11:44:44;9.40;99.90
22968;DHT22;11650;48.106;-1.696;2024-01-06T11:47:11;9.80;99.90
22968;DHT22;11650;48.106;-1.696;2024-01-06T11:49:38;9.60;99.90
22968;DHT22;11650;48.106;-1.696;2024-01-06T11:52:04;9.50;99.90
22968;DHT22;11650;48.106;-1.696;2024-01-06T11:54:30;9.60;99.90
22968;DHT22;11650;48.106;-1.696;2024-01-06T11:56:56;9.70;99.90
22968;DHT22;11650;48.106;-1.696;2024-01-06T11:59:23;10.00;99.90
22968;DHT22;11650;48.106;-1.696;2024-01-06T12:01:48;10.00;99.90
22968;DHT22;11650;48.106;-1.696;2024-01-06T12:04:14;10.00;99.90
22968;DHT22;11650;48.106;-1.696;2024-01-06T12:06:43;9.80;99.90
22968;DHT22;11650;48.106;-1.696;2024-01-06T12:09:12;9.40;99.90
22968;DHT22;11650;48.106;-1.696;2024-01-06T12:11:41;9.40;99.90
22968;DHT22;11650;48.106;-1.696;2024-01-06T12:14:07;9.20;99.90
22968;DHT22;11650;48.106;-1.696;2024-01-06T12:16:33;9.10;99.90
22968;DHT22;11650;48.106;-1.696;2024-01-06T12:18:59;9.10;99.90
22968;DHT22;11650;48.106;-1.696;2024-01-06T12:21:29;9.10;99.90
22968;DHT22;11650;48.106;-1.696;2024-01-06T12:24:16;9.20;99.90
22968;DHT22;11650;48.106;-1.696;2024-01-06T12:26:46;9.50;99.90
22968;DHT22;11650;48.106;-1.696;2024-01-06T12:29:16;9.50;99.90
22968;DHT22;11650;48.106;-1.696;2024-01-06T12:31:43;9.20;99.90
22968;DHT22;11650;48.106;-1.696;2024-01-06T12:34:10;9.10;99.90
22968;DHT22;11650;48.106;-1.696;2024-01-06T12:36:39;8.90;99.90
22968;DHT22;11650;48.106;-1.696;2024-01-06T12:39:10;8.90;99.90
22968;DHT22;11650;48.106;-1.696;2024-01-06T12:41:37;8.80;99.90
22968;DHT22;11650;48.106;-1.696;2024-01-06T12:44:03;8.80;99.90
22968;DHT22;11650;48.106;-1.696;2024-01-06T12:46:29;8.90;99.90
22968;DHT22;11650;48.106;-1.696;2024-01-06T12:48:55;8.90;99.90
22968;DHT22;11650;48.106;-1.696;2024-01-06T12:51:20;9.00;99.90
22968;DHT22;11650;48.106;-1.696;2024-01-06T12:53:46;8.90;99.90
22968;DHT22;11650;48.106;-1.696;2024-01-06T12:56:11;9.20;99.90
22968;DHT22;11650;48.106;-1.696;2024-01-06T12:58:40;9.80;99.90
22968;DHT22;11650;48.106;-1.696;2024-01-06T13:01:06;9.80;99.90
22968;DHT22;11650;48.106;-1.696;2024-01-06T13:03:32;9.60;99.90
22968;DHT22;11650;48.106;-1.696;2024-01-06T13:05:59;10.10;99.90
22968;DHT22;11650;48.106;-1.696;2024-01-06T13:08:25;12.30;99.90
22968;DHT22;11650;48.106;-1.696;2024-01-06T13:10:51;13.60;99.90
22968;DHT22;11650;48.106;-1.696;2024-01-06T13:13:16;14.30;99.90
22968;DHT22;11650;48.106;-1.696;2024-01-06T13:15:42;14.60;99.90
22968;DHT22;11650;48.106;-1.696;2024-01-06T13:18:08;14.90;99.90
22968;DHT22;11650;48.106;-1.696;2024-01-06T13:20:33;15.10;99.90
22968;DHT22;11650;48.106;-1.696;2024-01-06T13:22:59;15.40;99.90
22968;DHT22;11650;48.106;-1.696;2024-01-06T13:25:25;16.10;99.90
22968;DHT22;11650;48.106;-1.696;2024-01-06T13:27:50;15.40;99.90
22968;DHT22;11650;48.106;-1.696;2024-01-06T13:30:17;15.50;99.90
22968;DHT22;11650;48.106;-1.696;2024-01-06T13:32:42;15.00;99.90
22968;DHT22;11650;48.106;-1.696;2024-01-06T13:35:08;16.00;99.90
22968;DHT22;11650;48.106;-1.696;2024-01-06T13:37:36;14.90;99.90
22968;DHT22;11650;48.106;-1.696;2024-01-06T13:40:02;13.20;99.90
22968;DHT22;11650;48.106;-1.696;2024-01-06T13:42:28;11.70;99.90
22968;DHT22;11650;48.106;-1.696;2024-01-06T13:44:54;10.70;99.90
22968;DHT22;11650;48.106;-1.696;2024-01-06T13:47:20;10.10;99.90
22968;DHT22;11650;48.106;-1.696;2024-01-06T13:49:45;9.80;99.90
22968;DHT22;11650;48.106;-1.696;2024-01-06T13:52:11;9.60;99.90
22968;DHT22;11650;48.106;-1.696;2024-01-06T13:54:37;10.90;99.90
22968;DHT22;11650;48.106;-1.696;2024-01-06T13:57:02;14.10;99.90
22968;DHT22;11650;48.106;-1.696;2024-01-06T13:59:28;14.50;99.90
22968;DHT22;11650;48.106;-1.696;2024-01-06T14:01:54;15.00;99.90
22968;DHT22;11650;48.106;-1.696;2024-01-06T14:04:20;15.30;99.90
22968;DHT22;11650;48.106;-1.696;2024-01-06T14:06:45;16.30;99.90
22968;DHT22;11650;48.106;-1.696;2024-01-06T14:09:13;16.80;99.90
22968;DHT22;11650;48.106;-1.696;2024-01-06T14:11:39;17.20;99.90
22968;DHT22;11650;48.106;-1.696;2024-01-06T14:14:04;16.60;99.90
22968;DHT22;11650;48.106;-1.696;2024-01-06T14:16:30;16.20;99.90
22968;DHT22;11650;48.106;-1.696;2024-01-06T14:18:56;16.00;99.90
22968;DHT22;11650;48.106;-1.696;2024-01-06T14:21:22;14.70;99.90
22968;DHT22;11650;48.106;-1.696;2024-01-06T14:23:48;14.70;99.90
22968;DHT22;11650;48.106;-1.696;2024-01-06T14:26:15;16.00;99.90
22968;DHT22;11650;48.106;-1.696;2024-01-06T14:28:42;16.80;99.90
22968;DHT22;11650;48.106;-1.696;2024-01-06T14:31:08;17.20;99.90
22968;DHT22;11650;48.106;-1.696;2024-01-06T14:33:35;17.70;99.90
22968;DHT22;11650;48.106;-1.696;2024-01-06T14:36:01;16.60;99.90
22968;DHT22;11650;48.106;-1.696;2024-01-06T14:38:27;16.40;99.90
22968;DHT22;11650;48.106;-1.696;2024-01-06T14:40:52;15.50;99.90
22968;DHT22;11650;48.106;-1.696;2024-01-06T14:43:18;15.90;99.90
22968;DHT22;11650;48.106;-1.696;2024-01-06T14:45:44;15.50;99.90
22968;DHT22;11650;48.106;-1.696;2024-01-06T14:48:10;15.20;99.90
22968;DHT22;11650;48.106;-1.696;2024-01-06T14:50:36;15.20;99.90
22968;DHT22;11650;48.106;-1.696;2024-01-06T14:53:01;16.40;99.90
22968;DHT22;11650;48.106;-1.696;2024-01-06T14:55:27;16.30;99.90
22968;DHT22;11650;48.106;-1.696;2024-01-06T14:57:52;15.50;99.90
22968;DHT22;11650;48.106;-1.696;2024-01-06T15:00:18;16.00;99.90
22968;DHT22;11650;48.106;-1.696;2024-01-06T15:02:44;16.10;99.90
22968;DHT22;11650;48.106;-1.696;2024-01-06T15:05:11;15.40;99.90
22968;DHT22;11650;48.106;-1.696;2024-01-06T15:07:37;15.30;99.90
22968;DHT22;11650;48.106;-1.696;2024-01-06T15:10:03;15.90;99.90
22968;DHT22;11650;48.106;-1.696;2024-01-06T15:12:30;16.10;99.90
22968;DHT22;11650;48.106;-1.696;2024-01-06T15:14:56;15.80;99.90
22968;DHT22;11650;48.106;-1.696;2024-01-06T15:17:24;15.30;99.90
22968;DHT22;11650;48.106;-1.696;2024-01-06T15:19:49;12.60;99.90
22968;DHT22;11650;48.106;-1.696;2024-01-06T15:22:16;11.20;99.90